Search for airport 
image banner adimage banner adimage banner ad
image banner ad

6PN3 - Port Meadville

Located in Meadville, United States

ICAO - 6PN3, IATA -

Data provided by Airmate  

General information

Coordinates: N41°35'50" W80°10'15"
Elevation is 1220 feet MSL.
 
View others Airports in Pennsylvania

Operational data

Special qualification required
Current time UTC:
Current local time:
Weather at : KGKJ - Port Meadville ( 5 km )
METAR: KGKJ 091640Z AUTO 10007KT 1 1/4SM -SN BR BKN007 OVC014 02/01 A2994 RMK AO2 RAE31SNB31 PRESFR P0011 T00170006
View NOTAMs / SUP AIP / TFR affecting this airport [VIEW]
Communications frequencies: [VIEW]

Runways:

Airport contact information

Address: Meadville United States

Satellite view of 6PN3